createdAt,value
2023-04-03T00:01:12.892Z,102672.56
2023-04-03T00:03:40.273Z,102681.34
2023-04-03T00:06:08.085Z,102670.81
2023-04-03T00:08:35.966Z,102693.72
2023-04-03T00:11:04.750Z,102678.91
2023-04-03T00:13:34.240Z,102698.38
2023-04-03T00:16:01.657Z,102686.97
2023-04-03T00:18:28.760Z,102675.50
2023-04-03T00:20:55.829Z,102687.81
2023-04-03T00:23:24.530Z,102684.41
2023-04-03T00:25:54.232Z,102673.84
2023-04-03T00:28:21.519Z,102664.16
2023-04-03T00:30:51.527Z,102678.38
2023-04-03T00:33:20.326Z,102681.88
2023-04-03T00:35:47.264Z,102688.03
2023-04-03T00:38:14.248Z,102697.78
2023-04-03T00:40:46.719Z,102684.75
2023-04-03T00:43:16.759Z,102698.88
2023-04-03T00:45:47.611Z,102686.56
2023-04-03T00:48:46.081Z,102696.41
2023-04-03T00:51:21.426Z,102699.19
2023-04-03T00:53:54.566Z,102686.03
2023-04-03T00:56:25.100Z,102709.81
2023-04-03T00:58:59.310Z,102699.38
2023-04-03T01:01:29.540Z,102718.88
2023-04-03T01:03:56.686Z,102698.63
2023-04-03T01:06:32.181Z,102710.97
2023-04-03T01:09:05.523Z,102697.91
2023-04-03T01:11:33.466Z,102716.38
2023-04-03T01:14:02.872Z,102700.47
2023-04-03T01:16:32.660Z,102706.59
2023-04-03T01:19:02.074Z,102707.59
2023-04-03T01:21:37.816Z,102709.34
2023-04-03T01:24:26.397Z,102718.19
2023-04-03T01:26:53.769Z,102705.09
2023-04-03T01:29:21.337Z,102701.56
2023-04-03T01:31:57.659Z,102703.31
2023-04-03T01:34:26.002Z,102695.41
2023-04-03T01:36:53.631Z,102699.03
2023-04-03T01:39:22.208Z,102721.09
2023-04-03T01:41:50.306Z,102728.28
2023-04-03T01:44:30.063Z,102705.41
2023-04-03T01:46:57.002Z,102730.13
2023-04-03T01:49:25.500Z,102702.91
2023-04-03T01:51:52.438Z,102732.88
2023-04-03T01:54:19.469Z,102717.13
2023-04-03T01:56:46.531Z,102719.81
2023-04-03T01:59:14.149Z,102726.00
2023-04-03T02:01:41.631Z,102721.56
2023-04-03T02:04:08.859Z,102711.91
2023-04-03T02:06:35.961Z,102733.09
2023-04-03T02:09:03.385Z,102732.28
2023-04-03T02:11:31.647Z,102725.25
2023-04-03T02:13:58.601Z,102726.19
2023-04-03T02:16:25.635Z,102721.00
2023-04-03T02:18:52.648Z,102723.59
2023-04-03T02:21:19.602Z,102713.97
2023-04-03T02:23:46.548Z,102747.53
2023-04-03T02:26:16.737Z,102739.56
2023-04-03T02:28:45.897Z,102737.00
2023-04-03T02:31:13.318Z,102739.63
2023-04-03T02:33:42.271Z,102730.03
2023-04-03T02:36:11.318Z,102713.28
2023-04-03T02:38:41.404Z,102735.31
2023-04-03T02:41:12.219Z,102735.31
2023-04-03T02:43:39.778Z,102744.13
2023-04-03T02:46:07.727Z,102751.19
2023-04-03T02:48:36.254Z,102750.31
2023-04-03T02:51:03.232Z,102751.19
2023-04-03T02:53:30.248Z,102742.38
2023-04-03T02:55:57.752Z,102740.63
2023-04-03T02:58:24.901Z,102748.63
2023-04-03T03:00:55.281Z,102739.84
2023-04-03T03:03:22.224Z,102748.63
2023-04-03T03:05:49.179Z,102759.19
2023-04-03T03:08:16.387Z,102754.84
2023-04-03T03:10:43.301Z,102732.78
2023-04-03T03:13:10.196Z,102731.06
2023-04-03T03:15:37.157Z,102740.72
2023-04-03T03:18:04.231Z,102755.78
2023-04-03T03:20:31.423Z,102744.38
2023-04-03T03:22:59.085Z,102766.41
2023-04-03T03:25:26.107Z,102743.47
2023-04-03T03:27:53.078Z,102758.50
2023-04-03T03:30:20.008Z,102762.09
2023-04-03T03:32:48.005Z,102763.84
2023-04-03T03:35:15.349Z,102776.22
2023-04-03T03:37:42.340Z,102763.81
2023-04-03T03:40:10.395Z,102754.13
2023-04-03T03:42:38.403Z,102765.59
2023-04-03T03:45:06.600Z,102740.94
2023-04-03T03:47:33.521Z,102758.59
2023-04-03T03:50:00.989Z,102760.34
2023-04-03T03:52:28.205Z,102763.91
2023-04-03T03:54:55.425Z,102775.38
2023-04-03T03:57:22.752Z,102756.84
2023-04-03T03:59:50.061Z,102768.34
2023-04-03T04:02:19.077Z,102771.91
2023-04-03T04:04:46.905Z,102791.34
2023-04-03T04:07:14.555Z,102786.09
2023-04-03T04:09:41.902Z,102776.41
2023-04-03T04:12:09.922Z,102788.81
2023-04-03T04:14:37.566Z,102797.59
2023-04-03T04:17:06.752Z,102787.91
2023-04-03T04:19:34.261Z,102783.50
2023-04-03T04:22:01.482Z,102800.25
2023-04-03T04:24:29.572Z,102784.38
2023-04-03T04:26:57.519Z,102783.50
2023-04-03T04:29:26.175Z,102782.66
2023-04-03T04:31:53.764Z,102806.47
2023-04-03T04:34:22.389Z,102802.94
2023-04-03T04:36:49.733Z,102806.47
2023-04-03T04:39:17.067Z,102800.28
2023-04-03T04:41:44.113Z,102797.69
2023-04-03T04:44:11.299Z,102817.06
2023-04-03T04:46:39.029Z,102796.81
2023-04-03T04:49:07.704Z,102815.38
2023-04-03T04:51:41.054Z,102794.16
2023-04-03T04:54:17.104Z,102799.44
2023-04-03T04:56:46.098Z,102814.44
2023-04-03T04:59:13.590Z,102793.25
2023-04-03T05:01:41.341Z,102809.13
2023-04-03T05:04:13.676Z,102813.56
2023-04-03T05:06:41.099Z,102789.78
2023-04-03T05:09:13.309Z,102814.47
2023-04-03T05:11:44.001Z,102822.41
2023-04-03T05:14:12.211Z,102809.22
2023-04-03T05:16:40.089Z,102828.63
2023-04-03T05:19:07.733Z,102808.34
2023-04-03T05:21:35.130Z,102831.25
2023-04-03T05:24:10.035Z,102826.91
2023-04-03T05:26:39.764Z,102781.94
2023-04-03T05:29:08.287Z,102803.09
2023-04-03T05:31:35.462Z,102781.91
2023-04-03T05:34:02.423Z,102834.81
2023-04-03T05:36:31.918Z,102827.78
2023-04-03T05:39:04.880Z,102772.25
2023-04-03T05:41:33.399Z,102765.16
2023-04-03T05:44:00.372Z,102866.56
2023-04-03T05:46:27.692Z,102838.28
2023-04-03T05:48:57.198Z,102834.69
2023-04-03T05:51:34.162Z,102798.50
2023-04-03T05:54:23.919Z,102865.44
2023-04-03T05:56:53.409Z,102814.22
2023-04-03T05:59:22.230Z,102851.19
2023-04-03T06:01:52.513Z,102824.72
2023-04-03T06:04:22.129Z,102858.22
2023-04-03T06:06:54.714Z,102829.03
2023-04-03T06:09:25.587Z,102856.28
2023-04-03T06:11:53.198Z,102872.03
2023-04-03T06:14:22.289Z,102850.78
2023-04-03T06:16:49.659Z,102843.63
2023-04-03T06:19:17.123Z,102851.50
2023-04-03T06:21:48.431Z,102850.63
2023-04-03T06:24:17.374Z,102877.06
2023-04-03T06:26:44.885Z,102848.88
2023-04-03T06:29:11.824Z,102872.75
2023-04-03T06:31:38.925Z,102870.09
2023-04-03T06:34:09.424Z,102886.81
2023-04-03T06:36:36.691Z,102876.94
2023-04-03T06:39:04.260Z,102884.69
2023-04-03T06:41:31.406Z,102873.94
2023-04-03T06:43:59.038Z,102883.44
2023-04-03T06:46:27.697Z,102877.13
2023-04-03T06:48:54.972Z,102888.41
2023-04-03T06:51:24.361Z,102901.75
2023-04-03T06:53:54.067Z,102903.56
2023-04-03T06:56:22.267Z,102901.94
2023-04-03T06:58:49.530Z,102916.63
2023-04-03T07:01:20.198Z,102900.63
2023-04-03T07:03:48.931Z,102912.72
2023-04-03T07:06:18.258Z,102920.75
2023-04-03T07:08:46.535Z,102912.88
2023-04-03T07:11:14.092Z,102909.31
2023-04-03T07:13:41.633Z,102904.81
2023-04-03T07:16:09.861Z,102902.31
2023-04-03T07:18:37.377Z,102902.31
2023-04-03T07:21:05.927Z,102898.53
2023-04-03T07:23:33.015Z,102931.34
2023-04-03T07:26:03.675Z,102920.13
2023-04-03T07:28:30.754Z,102947.59
2023-04-03T07:31:09.222Z,102945.63
2023-04-03T07:33:36.656Z,102955.97
2023-04-03T07:36:05.648Z,102950.34
2023-04-03T07:38:32.657Z,102939.63
2023-04-03T07:40:59.550Z,102929.88
2023-04-03T07:43:27.002Z,102933.31
2023-04-03T07:45:55.199Z,102937.03
2023-04-03T07:48:25.775Z,102944.91
2023-04-03T07:50:53.411Z,102963.38
2023-04-03T07:53:20.889Z,102933.19
2023-04-03T07:55:50.005Z,102962.16
2023-04-03T07:58:19.556Z,102937.56
2023-04-03T08:00:48.210Z,102949.97
2023-04-03T08:03:17.650Z,102961.47
2023-04-03T08:05:51.808Z,102951.47
2023-04-03T08:08:22.974Z,102950.09
2023-04-03T08:10:54.673Z,102952.88
2023-04-03T08:13:22.828Z,102955.31
2023-04-03T08:15:50.230Z,102954.72
2023-04-03T08:18:18.070Z,102947.66
2023-04-03T08:20:45.936Z,102941.47
2023-04-03T08:23:12.907Z,102964.31
2023-04-03T08:25:41.938Z,102960.25
2023-04-03T08:28:10.930Z,102967.03
2023-04-03T08:30:43.417Z,102951.06
2023-04-03T08:33:11.450Z,102926.19
2023-04-03T08:35:42.813Z,102942.56
2023-04-03T08:38:11.017Z,102944.22
2023-04-03T08:40:38.778Z,102943.66
2023-04-03T08:43:35.707Z,102938.38
2023-04-03T08:46:07.003Z,102953.44
2023-04-03T08:48:43.267Z,102945.31
2023-04-03T08:51:21.862Z,102899.38
2023-04-03T08:54:04.511Z,102933.63
2023-04-03T08:56:34.846Z,102892.25
2023-04-03T08:59:06.723Z,102923.16
2023-04-03T09:01:41.064Z,102886.28
2023-04-03T09:04:27.073Z,102931.78
2023-04-03T09:07:12.105Z,102893.75
2023-04-03T09:09:43.733Z,102902.22
2023-04-03T09:12:26.662Z,102923.44
2023-04-03T09:15:27.845Z,102904.16
2023-04-03T09:18:23.387Z,102919.06
2023-04-03T09:21:18.371Z,102900.50
2023-04-03T09:23:54.589Z,102905.97
2023-04-03T09:26:37.656Z,102919.13
2023-04-03T09:29:09.321Z,102915.19
2023-04-03T09:31:43.928Z,102892.06
2023-04-03T09:34:27.681Z,102904.28
2023-04-03T09:36:58.757Z,102895.06
2023-04-03T09:39:30.031Z,102892.38
2023-04-03T09:42:07.474Z,102894.81
2023-04-03T09:44:40.061Z,102898.88
2023-04-03T09:47:37.770Z,102905.34
2023-04-03T09:50:14.276Z,102894.53
2023-04-03T09:52:43.961Z,102887.50
2023-04-03T09:55:30.992Z,102897.94
2023-04-03T09:58:03.852Z,102922.94
2023-04-03T10:00:41.281Z,102882.69
2023-04-03T10:03:36.621Z,102886.00
2023-04-03T10:06:05.586Z,102886.34
2023-04-03T10:08:35.525Z,102879.13
2023-04-03T10:11:17.714Z,102880.97
2023-04-03T10:13:53.329Z,102853.28
2023-04-03T10:16:46.599Z,102878.16
2023-04-03T10:20:00.424Z,102864.84
2023-04-03T10:23:03.089Z,102866.06
2023-04-03T10:25:57.675Z,102845.81
2023-04-03T10:29:21.815Z,102859.53
2023-04-03T10:32:23.710Z,102864.53
2023-04-03T10:35:34.073Z,102851.09
2023-04-03T10:39:04.337Z,102858.41
2023-04-03T10:42:13.340Z,102850.94
2023-04-03T10:45:19.554Z,102838.50
2023-04-03T10:48:23.888Z,102838.94
2023-04-03T10:51:12.744Z,102834.31
2023-04-03T10:53:51.769Z,102860.78
2023-04-03T10:56:39.604Z,102829.53
2023-04-03T10:59:37.871Z,102850.13
2023-04-03T11:02:31.620Z,102854.28
2023-04-03T11:05:17.124Z,102854.13
2023-04-03T11:07:51.686Z,102794.34
2023-04-03T11:10:27.613Z,102803.91
2023-04-03T11:13:12.931Z,102834.88
2023-04-03T11:15:40.425Z,102833.97
2023-04-03T11:18:37.233Z,102832.22
2023-04-03T11:21:24.076Z,102836.03
2023-04-03T11:23:53.097Z,102809.97
2023-04-03T11:26:23.932Z,102816.50
2023-04-03T11:29:05.299Z,102806.28
2023-04-03T11:32:15.797Z,102803.34
2023-04-03T11:34:47.001Z,102799.28
2023-04-03T11:37:36.691Z,102802.81
2023-04-03T11:40:22.733Z,102808.28
2023-04-03T11:43:01.300Z,102795.59
2023-04-03T11:46:00.397Z,102792.28
2023-04-03T11:48:33.034Z,102784.06
2023-04-03T11:51:29.154Z,102787.25
2023-04-03T11:54:42.094Z,102781.53
2023-04-03T11:57:32.879Z,102783.00
2023-04-03T11:59:59.896Z,102769.47
2023-04-03T12:05:30.823Z,102782.03
2023-04-03T12:08:31.969Z,102781.56
2023-04-03T12:11:14.376Z,102780.53
2023-04-03T12:13:50.800Z,102780.34
2023-04-03T12:16:28.625Z,102784.53
2023-04-03T12:19:05.225Z,102780.81
2023-04-03T12:21:35.080Z,102777.88
2023-04-03T12:24:11.818Z,102778.88
2023-04-03T12:26:49.034Z,102764.28
2023-04-03T12:29:24.697Z,102752.78
2023-04-03T12:32:28.334Z,102765.53
2023-04-03T12:35:38.494Z,102760.56
2023-04-03T12:38:42.364Z,102717.53
2023-04-03T12:41:14.988Z,102735.19
2023-04-03T12:44:22.212Z,102740.22
2023-04-03T12:47:39.846Z,102736.50
2023-04-03T12:50:31.158Z,102727.69
2023-04-03T12:53:05.629Z,102723.47
2023-04-03T12:55:32.786Z,102732.19
2023-04-03T12:58:17.738Z,102717.91
2023-04-03T13:00:44.722Z,102698.25
2023-04-03T13:03:27.883Z,102714.72
2023-04-03T13:06:02.940Z,102708.13
2023-04-03T13:08:31.491Z,102692.34
2023-04-03T13:11:07.386Z,102713.50
2023-04-03T13:13:34.409Z,102703.78
2023-04-03T13:16:11.525Z,102683.88
2023-04-03T13:18:39.148Z,102701.59
2023-04-03T13:21:21.299Z,102688.94
2023-04-03T13:23:57.672Z,102700.63
2023-04-03T13:26:33.804Z,102695.88
2023-04-03T13:29:06.032Z,102682.78
2023-04-03T13:31:39.491Z,102685.13
2023-04-03T13:34:18.653Z,102655.00
2023-04-03T13:36:52.163Z,102688.13
2023-04-03T13:39:19.035Z,102682.31
2023-04-03T13:41:52.868Z,102659.13
2023-04-03T13:44:22.864Z,102683.00
2023-04-03T13:46:59.062Z,102642.59
2023-04-03T13:49:42.593Z,102670.50
2023-04-03T13:52:22.950Z,102664.38
2023-04-03T13:55:07.869Z,102627.88
2023-04-03T13:57:37.151Z,102663.81
2023-04-03T14:00:35.210Z,102659.88
2023-04-03T14:03:02.893Z,102649.00
2023-04-03T14:05:30.003Z,102635.34
2023-04-03T14:07:57.873Z,102630.34
2023-04-03T14:10:24.832Z,102635.63
2023-04-03T14:12:52.167Z,102638.38
2023-04-03T14:15:29.797Z,102638.56
2023-04-03T14:17:57.264Z,102652.50
2023-04-03T14:20:27.541Z,102649.91
2023-04-03T14:22:54.761Z,102639.38
2023-04-03T14:25:24.736Z,102631.34
2023-04-03T14:27:54.728Z,102635.06
2023-04-03T14:30:30.728Z,102638.16
2023-04-03T14:32:58.142Z,102611.06
2023-04-03T14:35:26.056Z,102616.53
2023-04-03T14:37:54.834Z,102620.84
2023-04-03T14:40:30.969Z,102613.72
2023-04-03T14:42:58.415Z,102617.25
2023-04-03T14:45:25.465Z,102641.53
2023-04-03T14:47:55.565Z,102624.41
2023-04-03T14:50:28.386Z,102614.22
2023-04-03T14:52:59.482Z,102609.69
2023-04-03T14:55:27.041Z,102601.22
2023-04-03T14:57:54.699Z,102612.38
2023-04-03T15:00:23.423Z,102611.84
2023-04-03T15:02:50.984Z,102609.22
2023-04-03T15:05:18.223Z,102608.97
2023-04-03T15:07:55.687Z,102613.03
2023-04-03T15:10:26.986Z,102602.19
2023-04-03T15:12:54.253Z,102606.97
2023-04-03T15:15:23.116Z,102619.25
2023-04-03T15:17:55.235Z,102610.88
2023-04-03T15:20:27.802Z,102620.16
2023-04-03T15:22:57.392Z,102612.81
2023-04-03T15:25:26.188Z,102595.03
2023-04-03T15:27:57.816Z,102602.38
2023-04-03T15:30:25.331Z,102564.75
2023-04-03T15:32:52.513Z,102596.66
2023-04-03T15:35:19.987Z,102597.22
2023-04-03T15:37:47.218Z,102576.16
2023-04-03T15:40:14.202Z,102572.72
2023-04-03T15:42:41.569Z,102574.00
2023-04-03T15:45:09.757Z,102594.78
2023-04-03T15:47:36.957Z,102568.91
2023-04-03T15:50:07.018Z,102576.63
2023-04-03T15:52:33.954Z,102562.97
2023-04-03T15:55:00.965Z,102575.31
2023-04-03T15:57:27.979Z,102583.56
2023-04-03T15:59:55.113Z,102583.72
2023-04-03T16:02:22.424Z,102573.88
2023-04-03T16:04:50.044Z,102569.69
2023-04-03T16:07:17.048Z,102577.31
2023-04-03T16:09:43.969Z,102590.41
2023-04-03T16:12:10.902Z,102590.84
2023-04-03T16:14:37.961Z,102576.13
2023-04-03T16:17:04.964Z,102573.22
2023-04-03T16:19:31.879Z,102572.19
2023-04-03T16:21:58.911Z,102583.59
2023-04-03T16:24:25.886Z,102582.53
2023-04-03T16:26:54.357Z,102577.91
2023-04-03T16:29:21.428Z,102587.38
2023-04-03T16:31:48.515Z,102591.84
2023-04-03T16:34:16.346Z,102573.78
2023-04-03T16:36:43.329Z,102569.53
2023-04-03T16:39:13.011Z,102576.88
2023-04-03T16:41:39.942Z,102564.28
2023-04-03T16:44:08.459Z,102577.38
2023-04-03T16:46:35.807Z,102543.25
2023-04-03T16:49:02.917Z,102558.84
2023-04-03T16:51:30.103Z,102563.34
2023-04-03T16:53:57.185Z,102555.53
2023-04-03T16:56:24.587Z,102579.28
2023-04-03T16:58:51.670Z,102566.66
2023-04-03T17:01:21.230Z,102564.25
2023-04-03T17:03:48.991Z,102580.13
2023-04-03T17:06:21.462Z,102577.00
2023-04-03T17:08:51.282Z,102580.78
2023-04-03T17:11:29.190Z,102577.81
2023-04-03T17:13:56.240Z,102557.22
2023-04-03T17:16:24.448Z,102573.63
2023-04-03T17:18:52.989Z,102566.88
2023-04-03T17:21:20.886Z,102564.94
2023-04-03T17:23:53.580Z,102576.91
2023-04-03T17:26:22.240Z,102578.38
2023-04-03T17:28:49.288Z,102555.00
2023-04-03T17:31:16.230Z,102570.59
2023-04-03T17:33:43.389Z,102573.38
2023-04-03T17:36:10.631Z,102570.25
2023-04-03T17:38:38.037Z,102584.00
2023-04-03T17:41:08.301Z,102587.88
2023-04-03T17:43:36.245Z,102593.88
2023-04-03T17:46:09.686Z,102594.00
2023-04-03T17:48:39.480Z,102602.09
2023-04-03T17:51:13.298Z,102592.47
2023-04-03T17:53:41.136Z,102599.44
2023-04-03T17:56:15.054Z,102604.91
2023-04-03T17:58:42.578Z,102600.53
2023-04-03T18:01:16.719Z,102598.16
2023-04-03T18:03:45.104Z,102602.44
2023-04-03T18:06:15.887Z,102583.06
2023-04-03T18:08:54.940Z,102599.09
2023-04-03T18:11:27.323Z,102584.00
2023-04-03T18:13:58.227Z,102601.94
2023-04-03T18:16:26.409Z,102596.50
2023-04-03T18:19:02.569Z,102620.53
2023-04-03T18:21:41.896Z,102608.22
2023-04-03T18:24:14.897Z,102605.78
2023-04-03T18:26:44.505Z,102622.91
2023-04-03T18:29:12.052Z,102617.69
2023-04-03T18:31:44.453Z,102613.75
2023-04-03T18:34:12.028Z,102607.63
2023-04-03T18:36:39.291Z,102621.13
2023-04-03T18:39:06.477Z,102613.63
2023-04-03T18:41:35.279Z,102617.47
2023-04-03T18:44:05.491Z,102637.22
2023-04-03T18:46:32.768Z,102614.25
2023-04-03T18:49:00.263Z,102609.47
2023-04-03T18:51:27.663Z,102616.75
2023-04-03T18:53:54.637Z,102610.00
2023-04-03T18:56:22.303Z,102623.22
2023-04-03T18:58:49.376Z,102628.69
2023-04-03T19:01:16.604Z,102622.00
2023-04-03T19:03:43.867Z,102616.97
2023-04-03T19:06:11.046Z,102616.34
2023-04-03T19:08:37.991Z,102632.34
2023-04-03T19:11:05.286Z,102601.75
2023-04-03T19:13:32.573Z,102616.50
2023-04-03T19:16:00.032Z,102629.84
2023-04-03T19:18:27.821Z,102615.97
2023-04-03T19:20:56.943Z,102631.88
2023-04-03T19:23:24.990Z,102616.97
2023-04-03T19:26:04.793Z,102627.59
2023-04-03T19:28:31.900Z,102626.91
2023-04-03T19:31:01.160Z,102615.63
2023-04-03T19:33:28.817Z,102613.94
2023-04-03T19:35:55.837Z,102625.59
2023-04-03T19:38:22.886Z,102612.56
2023-04-03T19:40:49.849Z,102617.00
2023-04-03T19:43:17.086Z,102615.94
2023-04-03T19:45:46.449Z,102617.84
2023-04-03T19:48:13.777Z,102620.69
2023-04-03T19:50:41.103Z,102613.31
2023-04-03T19:53:18.496Z,102622.66
2023-04-03T19:55:46.974Z,102621.88
2023-04-03T19:58:14.011Z,102616.84
2023-04-03T20:00:41.256Z,102611.84
2023-04-03T20:03:08.352Z,102600.50
2023-04-03T20:05:35.413Z,102621.75
2023-04-03T20:08:02.360Z,102624.69
2023-04-03T20:10:29.258Z,102619.72
2023-04-03T20:12:56.369Z,102641.03
2023-04-03T20:15:23.296Z,102620.03
2023-04-03T20:17:50.477Z,102613.25
2023-04-03T20:20:21.078Z,102607.94
2023-04-03T20:22:48.702Z,102626.53
2023-04-03T20:25:23.941Z,102639.94
2023-04-03T20:28:03.546Z,102632.22
2023-04-03T20:30:30.462Z,102640.25
2023-04-03T20:32:59.031Z,102633.34
2023-04-03T20:35:27.770Z,102638.78
2023-04-03T20:37:54.991Z,102651.25
2023-04-03T20:40:21.942Z,102650.63
2023-04-03T20:42:51.579Z,102635.78
2023-04-03T20:45:21.268Z,102646.44
2023-04-03T20:47:49.555Z,102653.56
2023-04-03T20:50:16.650Z,102640.25
2023-04-03T20:52:43.625Z,102648.25
2023-04-03T20:55:11.013Z,102621.56
2023-04-03T20:57:39.549Z,102620.22
2023-04-03T21:00:16.725Z,102599.13
2023-04-03T21:02:51.209Z,102583.41
2023-04-03T21:05:18.415Z,102606.44
2023-04-03T21:08:42.620Z,102634.63
2023-04-03T21:12:11.050Z,102620.09
2023-04-03T21:15:19.041Z,102619.50
2023-04-03T21:18:27.011Z,102614.84
2023-04-03T21:20:57.018Z,102630.03
2023-04-03T21:23:33.894Z,102623.00
2023-04-03T21:26:07.645Z,102597.69
2023-04-03T21:28:40.636Z,102614.38
2023-04-03T21:31:08.464Z,102612.13
2023-04-03T21:33:41.504Z,102612.22
2023-04-03T21:36:12.449Z,102570.19
2023-04-03T21:38:42.656Z,102590.59
2023-04-03T21:41:09.724Z,102599.50
2023-04-03T21:43:37.221Z,102616.16
2023-04-03T21:46:05.660Z,102593.25
2023-04-03T21:48:32.727Z,102608.25
2023-04-03T21:51:04.787Z,102614.31
2023-04-03T21:53:36.307Z,102611.91
2023-04-03T21:56:03.286Z,102605.81
2023-04-03T21:58:32.113Z,102600.50
2023-04-03T22:01:12.696Z,102600.53
2023-04-03T22:03:41.566Z,102617.34
2023-04-03T22:06:09.986Z,102615.53
2023-04-03T22:08:37.679Z,102624.44
2023-04-03T22:11:09.879Z,102614.03
2023-04-03T22:13:37.500Z,102610.66
2023-04-03T22:16:04.826Z,102612.34
2023-04-03T22:18:32.648Z,102609.88
2023-04-03T22:20:59.694Z,102611.63
2023-04-03T22:23:27.404Z,102586.97
2023-04-03T22:26:11.318Z,102607.22
2023-04-03T22:28:41.398Z,102614.53
2023-04-03T22:31:09.669Z,102595.34
2023-04-03T22:33:37.544Z,102598.97
2023-04-03T22:36:06.037Z,102611.44
2023-04-03T22:38:33.509Z,102610.50
2023-04-03T22:41:07.901Z,102607.75
2023-04-03T22:43:37.437Z,102607.75
2023-04-03T22:46:09.241Z,102609.59
2023-04-03T22:48:38.562Z,102585.94
2023-04-03T22:51:09.322Z,102613.19
2023-04-03T22:53:37.351Z,102601.81
2023-04-03T22:56:10.878Z,102617.69
2023-04-03T22:58:38.895Z,102602.78
2023-04-03T23:01:13.630Z,102603.63
2023-04-03T23:03:42.415Z,102622.22
2023-04-03T23:06:10.409Z,102605.41
2023-04-03T23:08:39.031Z,102588.75
2023-04-03T23:11:12.617Z,102611.59
2023-04-03T23:13:39.561Z,102615.09
2023-04-03T23:16:06.802Z,102607.28
2023-04-03T23:18:33.935Z,102609.19
2023-04-03T23:21:03.500Z,102610.03
2023-04-03T23:23:31.139Z,102606.56
2023-04-03T23:26:02.722Z,102592.50
2023-04-03T23:28:30.162Z,102616.31
2023-04-03T23:31:07.038Z,102619.91
2023-04-03T23:33:34.497Z,102619.00
2023-04-03T23:36:07.519Z,102623.47
2023-04-03T23:38:35.410Z,102625.34
2023-04-03T23:41:02.432Z,102613.94
2023-04-03T23:43:29.384Z,102615.78
2023-04-03T23:45:56.343Z,102603.44
2023-04-03T23:48:23.267Z,102608.72
2023-04-03T23:50:50.198Z,102614.06
2023-04-03T23:53:17.179Z,102587.72
2023-04-03T23:55:44.238Z,102601.84
2023-04-03T23:58:11.155Z,102612.41
